Atlantic Beach, FL

7:33 PM EST on February 05, 2016 (GMT -0500)
13th and Ocean | | Change Station
CLOSE
Current Station
Personal Weather Station
Location: Atlantic Beach, FL
Elevation: 14 ft
Nearby Weather Stations

Elev 14 ft 30.34 °N, 81.40 °W | Updated 275 days ago

Clear
Clear
46 °F
Feels Like 43 °F
N
7
Wind Variable Wind from NNE
Gusts 13 mph

Today
High -- | Low -- °F
--% Chance of Precip.
Yesterday
High -- | Low -- °F
Precip. -- in
Pressure 30.33 in
Visibility 10.0 miles
Clouds Clear
Windchill 43 °F
Dew Point 37 °F
Humidity 68%
Rainfall in
Snow Depth Not available.
7:14 AM 6:05 PM
Waning Crescent, 8% visible
METAR KNRB 052352Z AUTO 05012KT 10SM CLR 10/01 A3033 RMK AO2 SLP269 T01000006 10122 20100 53011 $
Pressure 30.33 in
Visibility 10.0 miles
Clouds Clear
Windchill 43 °F
Dew Point 37 °F
Humidity 68%
Rainfall in
Snow Depth Not available.
7:14 AM 6:05 PM
Waning Crescent, 8% visible
METAR KNRB 052352Z AUTO 05012KT 10SM CLR 10/01 A3033 RMK AO2 SLP269 T01000006 10122 20100 53011 $

10-Day Weather Forecast

Almanac

Astronomy

Feb. 05, 2016 Rise Set
Actual Time
Civil Twilight
Nautical Twilight
Astronomical Twilight
Moon
Length of Visible Light
Length of Day
Tomorrow will be .
, % of the Moon is Illuminated

Today's Extremes

State Highs State Lows

Community

WunderPhotos

Upload Photos

1,890,899 photos uploaded!

WunderBlog® & News

Nearby

Air Quality

  Air Quality AQ Index Pollutant
Not available.

Snow Depth

Station Depth Elevation

Earthquake Activity

City Distance Mag. Time & Date
Minimum magnitude displayed is 2.5.

Coastal Water Temperatures

Place Temperature

Stations

Nearby Weather Stations

Station Location Temp. Windchill Dew Point Humidity Wind Precip. Elev Updated Type
                   

Watches & Warnings

There are currently no watches in effect.